Time;durP1;ratioP1;P1;durP2;ratioP2;P2;SDS_P1;SDS_P2;PMS_P1;PMS_P2;Temp;Humidity;BMP_temperature;BMP_pressure;BME280_temperature;BME280_humidity;BME280_pressure;Samples;Min_cycle;Max_cycle;Signal;HPM_P1;HPM_P2
2023/02/20 00:00:24;;;;;;;14.65;8.50;;;8.70;87.60;;;;;;4989845;28;20045;-62
2023/02/20 00:02:51;;;;;;;11.02;7.43;;;8.80;87.40;;;;;;4992172;28;20046;-63
2023/02/20 00:05:24;;;;;;;14.50;8.57;;;8.70;87.30;;;;;;4990138;28;20126;-62
2023/02/20 00:07:53;;;;;;;12.38;7.78;;;8.70;87.30;;;;;;4995055;28;20037;-63
2023/02/20 00:10:20;;;;;;;13.57;8.10;;;8.70;87.20;;;;;;4991643;28;20408;-62
2023/02/20 00:12:47;;;;;;;13.20;8.07;;;8.60;87.00;;;;;;4993789;28;20050;-62
2023/02/20 00:15:19;;;;;;;13.13;8.05;;;8.60;86.80;;;;;;4993230;28;20065;-63
2023/02/20 00:17:47;;;;;;;11.52;7.82;;;8.60;86.70;;;;;;4997059;28;20050;-64
2023/02/20 00:20:14;;;;;;;12.63;7.50;;;8.60;86.20;;;;;;4998720;28;20046;-63
2023/02/20 00:22:41;;;;;;;13.68;7.63;;;8.50;86.30;;;;;;4994304;28;20042;-62
2023/02/20 00:25:09;;;;;;;12.65;7.78;;;8.50;86.20;;;;;;4990609;28;20484;-62
2023/02/20 00:27:37;;;;;;;13.13;7.50;;;8.50;86.30;;;;;;4995334;28;20129;-61
2023/02/20 00:30:05;;;;;;;10.77;7.50;;;8.40;86.10;;;;;;4995337;28;20054;-62
2023/02/20 00:32:35;;;;;;;12.23;7.72;;;8.40;86.20;;;;;;4997903;28;20054;-63
2023/02/20 00:35:02;;;;;;;12.50;8.07;;;8.30;86.20;;;;;;4997164;28;20050;-63
2023/02/20 00:37:28;;;;;;;11.38;7.03;;;8.30;86.30;;;;;;4997936;28;20058;-62
2023/02/20 00:39:55;;;;;;;12.40;7.32;;;8.40;86.50;;;;;;4993905;28;20045;-63
2023/02/20 00:42:23;;;;;;;11.70;6.85;;;8.30;86.10;;;;;;4994867;28;20054;-63
2023/02/20 00:44:50;;;;;;;13.40;8.43;;;8.30;86.20;;;;;;4996608;28;20046;-61
2023/02/20 00:47:17;;;;;;;16.85;8.65;;;8.30;86.40;;;;;;4995496;28;20054;-62
2023/02/20 00:49:44;;;;;;;14.38;8.48;;;8.20;86.40;;;;;;4996108;28;20069;-62
2023/02/20 00:52:14;;;;;;;14.48;8.57;;;8.20;86.20;;;;;;4996760;28;20064;-64
2023/02/20 00:54:41;;;;;;;14.88;8.73;;;8.20;86.40;;;;;;4993367;28;20052;-62
2023/02/20 00:57:07;;;;;;;12.48;8.05;;;8.20;86.40;;;;;;4991735;28;20052;-63
2023/02/20 00:59:36;;;;;;;12.13;8.20;;;8.20;86.40;;;;;;4997986;28;20487;-63
2023/02/20 01:02:03;;;;;;;11.85;7.15;;;8.20;86.30;;;;;;4997459;28;20073;-63
2023/02/20 01:04:29;;;;;;;12.38;7.95;;;8.20;86.60;;;;;;4996395;28;20540;-62
2023/02/20 01:06:56;;;;;;;11.75;7.53;;;8.10;86.80;;;;;;4995748;28;20125;-65
2023/02/20 01:09:25;;;;;;;11.68;7.13;;;8.10;86.90;;;;;;4993502;28;20054;-63
2023/02/20 01:11:52;;;;;;;11.35;7.15;;;8.10;87.20;;;;;;4996874;28;20049;-63
2023/02/20 01:14:20;;;;;;;10.88;6.88;;;8.10;87.20;;;;;;4990727;28;20049;-63
2023/02/20 01:16:52;;;;;;;10.50;7.13;;;8.10;87.40;;;;;;4991919;28;20488;-64
2023/02/20 01:19:19;;;;;;;12.10;7.47;;;8.10;87.40;;;;;;5000184;28;20054;-63
2023/02/20 01:21:47;;;;;;;12.00;7.20;;;8.10;87.50;;;;;;4996319;28;20050;-63
2023/02/20 01:24:14;;;;;;;13.25;7.88;;;8.00;87.60;;;;;;4995475;28;20104;-62
2023/02/20 01:26:41;;;;;;;13.80;7.68;;;8.00;87.60;;;;;;4993784;28;20046;-62
2023/02/20 01:29:08;;;;;;;11.85;7.43;;;8.00;87.70;;;;;;4996908;28;20058;-65
2023/02/20 01:31:35;;;;;;;12.57;7.40;;;8.00;87.70;;;;;;4998216;28;20038;-63
2023/02/20 01:34:04;;;;;;;10.70;6.63;;;8.00;87.80;;;;;;4996691;28;20046;-64
2023/02/20 01:36:33;;;;;;;10.43;6.28;;;8.00;87.70;;;;;;4982359;28;20053;-63
2023/02/20 01:39:02;;;;;;;10.50;6.53;;;8.00;87.70;;;;;;5005011;28;20050;-61
2023/02/20 01:41:29;;;;;;;12.75;6.95;;;8.00;87.70;;;;;;4990080;28;20430;-62
2023/02/20 01:43:56;;;;;;;11.30;7.00;;;8.00;87.70;;;;;;4997642;28;20428;-64
2023/02/20 01:46:51;;;;;;;11.65;6.97;;;8.00;87.70;;;;;;4998058;28;20050;-63
2023/02/20 01:49:25;;;;;;;12.30;6.40;;;7.90;87.60;;;;;;5005193;28;20133;-64
2023/02/20 01:51:58;;;;;;;10.65;6.18;;;7.90;87.50;;;;;;4997178;28;20130;-63
2023/02/20 01:54:27;;;;;;;10.18;5.78;;;7.90;87.50;;;;;;4993037;28;20088;-63
2023/02/20 01:56:59;;;;;;;11.55;6.28;;;7.90;87.60;;;;;;4999212;28;20084;-63
2023/02/20 01:59:29;;;;;;;11.13;6.70;;;7.90;87.60;;;;;;5003172;28;20056;-63
2023/02/20 02:01:56;;;;;;;11.33;6.37;;;7.90;87.50;;;;;;4990241;28;20050;-63
2023/02/20 02:04:25;;;;;;;9.88;5.93;;;7.90;87.60;;;;;;4997580;28;20445;-64
2023/02/20 02:06:54;;;;;;;11.15;6.40;;;7.90;87.40;;;;;;4993083;28;20049;-62
2023/02/20 02:09:37;;;;;;;11.13;5.90;;;7.90;87.10;;;;;;4996144;28;20043;-62
2023/02/20 02:12:04;;;;;;;12.27;6.80;;;7.80;87.10;;;;;;4996714;28;20080;-63
2023/02/20 02:14:32;;;;;;;9.75;5.68;;;7.80;86.90;;;;;;4989766;28;20489;-62
2023/02/20 02:17:18;;;;;;;10.18;5.82;;;7.70;86.90;;;;;;4996403;28;20539;-63
2023/02/20 02:20:20;;;;;;;10.75;5.80;;;7.70;86.90;;;;;;4995313;28;20116;-62
2023/02/20 02:23:20;;;;;;;8.98;5.13;;;7.70;86.90;;;;;;4993746;28;20046;-62
2023/02/20 02:25:56;;;;;;;9.13;4.93;;;7.70;86.90;;;;;;4995543;28;20042;-61
2023/02/20 02:29:10;;;;;;;8.63;5.05;;;7.70;86.90;;;;;;4992422;28;20492;-63
2023/02/20 02:32:04;;;;;;;9.93;5.28;;;7.60;86.90;;;;;;4995068;28;20057;-62
2023/02/20 02:35:13;;;;;;;9.30;5.35;;;7.60;86.80;;;;;;4987218;28;20046;-63
2023/02/20 02:37:48;;;;;;;7.75;4.68;;;7.50;86.80;;;;;;4991561;28;20054;-63
2023/02/20 02:40:22;;;;;;;8.43;5.07;;;7.50;86.70;;;;;;4991609;28;20058;-62
2023/02/20 02:42:56;;;;;;;8.70;4.70;;;7.50;86.80;;;;;;4990957;28;20112;-63
2023/02/20 02:45:29;;;;;;;7.82;4.50;;;7.40;86.60;;;;;;4993239;28;20150;-63
2023/02/20 02:48:04;;;;;;;8.88;4.88;;;7.40;86.80;;;;;;4995585;28;20068;-62
2023/02/20 02:50:35;;;;;;;9.73;5.18;;;7.40;86.80;;;;;;4990488;28;20057;-62
2023/02/20 02:53:04;;;;;;;9.07;4.90;;;7.30;86.60;;;;;;4995348;28;20093;-62
2023/02/20 02:55:33;;;;;;;8.18;5.32;;;7.30;86.50;;;;;;5002643;28;20886;-70
2023/02/20 02:58:01;;;;;;;7.75;4.75;;;7.30;86.60;;;;;;4986763;28;20437;-70
2023/02/20 03:00:32;;;;;;;8.65;4.60;;;7.20;86.70;;;;;;4992571;28;20050;-68
2023/02/20 03:03:07;;;;;;;7.65;4.70;;;7.20;86.60;;;;;;4989861;28;20561;-67
2023/02/20 03:05:45;;;;;;;8.75;4.82;;;7.20;86.70;;;;;;4990664;28;20138;-62
2023/02/20 03:08:30;;;;;;;9.00;4.75;;;7.20;86.60;;;;;;4995892;28;20566;-60
2023/02/20 03:11:01;;;;;;;8.82;4.57;;;7.10;86.60;;;;;;5008367;28;20464;-59
2023/02/20 03:16:23;;;;;;;8.15;4.38;;;7.10;86.70;;;;;;4990940;28;20072;-58
2023/02/20 03:18:52;;;;;;;8.90;4.90;;;7.00;86.80;;;;;;4991032;28;20141;-58
2023/02/20 03:21:23;;;;;;;7.65;4.28;;;7.00;86.70;;;;;;4991008;28;20389;-60
2023/02/20 03:23:55;;;;;;;9.82;4.53;;;6.90;86.70;;;;;;4993783;28;20042;-61
2023/02/20 03:26:28;;;;;;;8.30;4.10;;;7.00;86.70;;;;;;4988042;28;20069;-62
2023/02/20 03:29:01;;;;;;;7.63;4.70;;;7.00;86.60;;;;;;4991790;28;20050;-60
2023/02/20 03:31:33;;;;;;;8.00;4.25;;;6.90;86.60;;;;;;4985630;28;20075;-61
2023/02/20 03:45:31;;;;;;;7.25;4.10;;;6.70;87.00;;;;;;4978859;28;20139;-61
2023/02/20 03:48:02;;;;;;;10.27;4.05;;;6.70;87.10;;;;;;4992555;28;20481;-60
2023/02/20 03:50:31;;;;;;;7.35;3.80;;;6.70;87.00;;;;;;4994219;28;20528;-63
2023/02/20 03:52:59;;;;;;;5.75;3.63;;;6.70;87.00;;;;;;4989165;28;20145;-63
2023/02/20 03:55:28;;;;;;;6.93;3.88;;;6.70;86.90;;;;;;4991296;28;20042;-63
2023/02/20 03:58:01;;;;;;;7.20;4.00;;;6.70;87.00;;;;;;4994790;28;20480;-66
2023/02/20 04:00:35;;;;;;;8.82;4.20;;;6.60;87.00;;;;;;4992586;28;20528;-62
2023/02/20 04:09:32;;;;;;;8.00;3.60;;;6.50;87.20;;;;;;2603911;22;20028;-57
2023/02/20 04:12:10;;;;;;;7.10;3.45;;;6.50;87.20;;;;;;5010515;28;20049;-59
2023/02/20 04:14:40;;;;;;;6.20;3.42;;;6.50;87.30;;;;;;5026684;28;20084;-59
2023/02/20 04:17:14;;;;;;;8.18;3.80;;;6.40;87.40;;;;;;5030935;28;20052;-59
2023/02/20 04:19:41;;;;;;;6.90;3.88;;;6.40;87.60;;;;;;5029270;28;20049;-60
2023/02/20 04:22:16;;;;;;;8.23;4.88;;;6.40;87.90;;;;;;5028562;28;20088;-58
2023/02/20 04:24:55;;;;;;;9.25;4.70;;;6.50;87.80;;;;;;5028228;28;20060;-58
2023/02/20 04:27:32;;;;;;;7.43;3.95;;;6.50;88.00;;;;;;5045478;28;20059;-59
2023/02/20 04:30:06;;;;;;;7.43;4.22;;;6.50;87.90;;;;;;5029481;28;20490;-59
2023/02/20 04:32:39;;;;;;;8.13;4.13;;;6.50;88.00;;;;;;5028906;28;20065;-60
2023/02/20 04:35:17;;;;;;;7.78;4.72;;;6.50;88.00;;;;;;5027246;28;20116;-60
2023/02/20 04:37:52;;;;;;;9.75;5.20;;;6.40;87.80;;;;;;5027467;28;20045;-57
2023/02/20 04:40:26;;;;;;;8.30;4.72;;;6.40;87.80;;;;;;5026993;28;20141;-59
2023/02/20 04:43:01;;;;;;;9.95;4.93;;;6.50;87.90;;;;;;5026766;28;20081;-59
2023/02/20 04:45:35;;;;;;;9.32;4.93;;;6.50;87.70;;;;;;5010526;28;20052;-58
2023/02/20 04:48:08;;;;;;;8.82;4.50;;;6.50;87.50;;;;;;5027018;28;20046;-58
2023/02/20 04:50:43;;;;;;;7.93;4.78;;;6.60;87.40;;;;;;5022395;28;20045;-58
2023/02/20 04:53:17;;;;;;;9.15;4.65;;;6.60;87.40;;;;;;5009717;28;20057;-58
2023/02/20 04:55:51;;;;;;;9.60;4.53;;;6.60;87.30;;;;;;5026512;28;20049;-58
2023/02/20 04:58:27;;;;;;;8.02;4.35;;;6.70;87.10;;;;;;5025268;28;20034;-59
2023/02/20 05:01:06;;;;;;;8.63;4.85;;;6.70;87.10;;;;;;5009280;28;20129;-57
2023/02/20 05:03:39;;;;;;;10.45;5.05;;;6.60;87.30;;;;;;5025940;28;20064;-59
2023/02/20 05:06:12;;;;;;;9.90;4.82;;;6.60;87.30;;;;;;5024641;28;20056;-58
2023/02/20 05:08:45;;;;;;;8.77;4.43;;;6.60;87.20;;;;;;5024959;28;20096;-58
2023/02/20 05:11:25;;;;;;;9.00;4.97;;;6.60;87.20;;;;;;5034916;28;20057;-59
2023/02/20 05:14:01;;;;;;;8.48;5.13;;;6.60;87.30;;;;;;5044616;28;20041;-58
2023/02/20 05:16:37;;;;;;;12.10;4.88;;;6.50;87.40;;;;;;5045054;28;20407;-61
2023/02/20 05:19:04;;;;;;;10.48;4.72;;;6.50;87.60;;;;;;5028248;28;20037;-59
2023/02/20 05:24:28;;;;;;;9.15;4.85;;;6.50;87.50;;;;;;5042232;28;20403;-57
2023/02/20 05:27:02;;;;;;;9.75;4.22;;;6.50;87.20;;;;;;5042383;28;20136;-59
2023/02/20 05:29:37;;;;;;;9.10;4.63;;;6.50;87.30;;;;;;5040874;28;20079;-57
2023/02/20 05:32:10;;;;;;;9.85;5.45;;;6.50;87.30;;;;;;5041898;28;20131;-58
2023/02/20 05:34:44;;;;;;;10.88;4.93;;;6.50;87.30;;;;;;5038238;28;20376;-57
2023/02/20 05:37:19;;;;;;;9.75;4.38;;;6.50;87.20;;;;;;5037332;28;20048;-60
2023/02/20 05:39:53;;;;;;;11.35;5.28;;;6.60;87.10;;;;;;5041057;28;20052;-59
2023/02/20 05:42:26;;;;;;;10.10;5.15;;;6.60;86.90;;;;;;5032832;28;21210;-63
2023/02/20 05:45:03;;;;;;;9.25;4.40;;;6.60;86.90;;;;;;5042440;28;20418;-60
2023/02/20 05:47:37;;;;;;;8.38;4.82;;;6.60;86.90;;;;;;5046352;28;20068;-61
2023/02/20 05:50:11;;;;;;;10.27;5.20;;;6.50;87.00;;;;;;5043089;28;20049;-57
2023/02/20 05:52:45;;;;;;;10.75;5.00;;;6.60;86.90;;;;;;5038968;28;20052;-59
2023/02/20 05:55:18;;;;;;;9.50;4.47;;;6.50;86.80;;;;;;5039205;28;20053;-59
2023/02/20 05:57:51;;;;;;;10.50;5.05;;;6.50;87.10;;;;;;5040513;28;20074;-59
2023/02/20 06:00:26;;;;;;;7.80;4.28;;;6.50;87.30;;;;;;5039773;28;20134;-60
2023/02/20 06:02:59;;;;;;;8.85;4.43;;;6.50;87.20;;;;;;5044547;28;20050;-57
2023/02/20 06:05:32;;;;;;;8.30;4.45;;;6.40;87.30;;;;;;5043388;28;20041;-59
2023/02/20 06:08:06;;;;;;;12.15;4.72;;;6.40;87.30;;;;;;5045053;28;20056;-58
2023/02/20 06:10:53;;;;;;;11.80;5.15;;;6.50;87.20;;;;;;5040285;28;20162;-59
2023/02/20 06:13:26;;;;;;;9.65;4.88;;;6.50;87.30;;;;;;5025799;28;20752;-59
2023/02/20 06:16:01;;;;;;;8.95;5.00;;;6.40;87.50;;;;;;5033261;28;20451;-58
2023/02/20 06:18:37;;;;;;;13.57;4.70;;;6.40;87.40;;;;;;5034548;28;20057;-58
2023/02/20 06:21:12;;;;;;;10.15;4.55;;;6.40;87.40;;;;;;5036507;28;20475;-59
2023/02/20 06:23:45;;;;;;;9.68;4.32;;;6.40;87.50;;;;;;5036239;28;20133;-59
2023/02/20 06:26:19;;;;;;;9.20;4.32;;;6.40;87.40;;;;;;5035665;28;20092;-59
2023/02/20 06:28:53;;;;;;;9.40;4.30;;;6.50;87.30;;;;;;5035025;28;20620;-59
2023/02/20 06:31:28;;;;;;;9.52;5.05;;;6.50;87.30;;;;;;5033072;28;20399;-58
2023/02/20 06:34:01;;;;;;;8.02;4.45;;;6.50;87.30;;;;;;5035553;28;20125;-59
2023/02/20 06:36:37;;;;;;;7.97;4.20;;;6.50;87.30;;;;;;5035061;28;20140;-58
2023/02/20 06:39:12;;;;;;;8.05;3.92;;;6.50;87.50;;;;;;5036136;28;20126;-61
2023/02/20 06:41:46;;;;;;;7.15;3.72;;;6.50;87.30;;;;;;5034426;28;20557;-59
2023/02/20 06:44:19;;;;;;;10.38;4.70;;;6.50;87.70;;;;;;5035853;28;20051;-57
2023/02/20 06:46:54;;;;;;;8.45;4.15;;;6.40;88.00;;;;;;5034895;28;20555;-63
2023/02/20 06:49:27;;;;;;;8.40;4.15;;;6.40;88.10;;;;;;5031884;28;20046;-58
2023/02/20 06:52:00;;;;;;;8.90;4.38;;;6.50;88.30;;;;;;5035473;28;20047;-63
2023/02/20 06:54:34;;;;;;;8.20;4.15;;;6.40;88.30;;;;;;5034479;28;20100;-60
2023/02/20 06:57:07;;;;;;;8.45;4.05;;;6.50;88.30;;;;;;5035340;28;20092;-59
2023/02/20 06:59:46;;;;;;;8.50;3.75;;;6.50;88.30;;;;;;5032106;28;20051;-61
2023/02/20 07:02:21;;;;;;;10.20;5.45;;;6.50;88.30;;;;;;5035646;28;20051;-61
2023/02/20 07:04:54;;;;;;;8.25;3.75;;;6.60;88.40;;;;;;5032523;28;20588;-58
2023/02/20 07:07:28;;;;;;;6.50;3.53;;;6.60;88.60;;;;;;5032903;28;20041;-59
2023/02/20 07:10:16;;;;;;;11.23;3.60;;;6.60;88.40;;;;;;5033548;28;20085;-59
2023/02/20 07:12:49;;;;;;;9.02;3.80;;;6.60;88.50;;;;;;5025193;28;20484;-58
2023/02/20 07:15:22;;;;;;;7.25;3.90;;;6.60;88.70;;;;;;5019119;28;20045;-57
2023/02/20 07:17:58;;;;;;;7.85;3.97;;;6.60;88.50;;;;;;5022069;28;20041;-58
2023/02/20 07:20:31;;;;;;;8.00;3.47;;;6.60;88.60;;;;;;5022331;28;20049;-58
2023/02/20 07:23:04;;;;;;;9.60;4.18;;;6.70;88.60;;;;;;5022715;28;20060;-59
2023/02/20 07:25:38;;;;;;;10.30;3.92;;;6.60;88.60;;;;;;5023773;28;20128;-58
2023/02/20 07:28:07;;;;;;;7.10;3.60;;;6.70;88.60;;;;;;5024035;28;20040;-57
2023/02/20 07:30:40;;;;;;;8.30;3.85;;;6.70;88.70;;;;;;5022503;28;20412;-59
2023/02/20 07:33:15;;;;;;;8.55;3.90;;;6.70;88.80;;;;;;5025952;28;20555;-57
2023/02/20 07:35:49;;;;;;;8.40;3.95;;;6.70;88.70;;;;;;5025318;28;20096;-62
2023/02/20 07:38:16;;;;;;;6.80;3.22;;;6.70;88.60;;;;;;5005622;28;20053;-59
2023/02/20 07:40:49;;;;;;;7.22;3.60;;;6.70;88.60;;;;;;5020406;28;20627;-59
2023/02/20 07:43:22;;;;;;;8.25;4.68;;;6.70;88.60;;;;;;5025430;28;20048;-59
2023/02/20 07:45:55;;;;;;;8.40;4.47;;;6.70;88.60;;;;;;5024446;28;20034;-58
2023/02/20 07:48:31;;;;;;;8.07;3.97;;;6.70;88.70;;;;;;5023330;28;20046;-58
2023/02/20 07:51:05;;;;;;;8.23;3.83;;;6.70;88.70;;;;;;5024382;28;20444;-58
2023/02/20 07:53:39;;;;;;;8.93;3.90;;;6.70;88.70;;;;;;5023694;28;20052;-59
2023/02/20 07:56:12;;;;;;;11.32;4.35;;;6.80;88.60;;;;;;5017348;28;20128;-59
2023/02/20 07:58:47;;;;;;;7.00;3.33;;;6.80;88.60;;;;;;5023690;28;20045;-58
2023/02/20 08:01:22;;;;;;;9.50;4.35;;;6.90;88.60;;;;;;5023091;28;20100;-58
2023/02/20 08:03:57;;;;;;;8.02;4.15;;;6.90;88.70;;;;;;5022119;28;20076;-57
2023/02/20 08:06:30;;;;;;;9.15;4.25;;;7.00;88.60;;;;;;5021535;28;20045;-57
2023/02/20 08:09:03;;;;;;;8.95;3.60;;;7.00;88.70;;;;;;5022227;28;20401;-59
2023/02/20 08:11:43;;;;;;;9.00;4.22;;;7.10;88.80;;;;;;5038365;28;20419;-58
2023/02/20 08:14:16;;;;;;;7.50;4.25;;;7.10;88.80;;;;;;5043527;28;20111;-58
2023/02/20 08:16:49;;;;;;;7.03;3.83;;;7.10;88.80;;;;;;5035552;28;20044;-58
2023/02/20 08:19:25;;;;;;;9.50;4.60;;;7.20;88.70;;;;;;5041870;28;20063;-59
2023/02/20 08:21:58;;;;;;;7.65;4.40;;;7.20;88.60;;;;;;5041283;28;20133;-58
2023/02/20 08:24:32;;;;;;;7.22;3.90;;;7.20;88.70;;;;;;5039391;28;20052;-61
2023/02/20 08:27:05;;;;;;;9.80;3.88;;;7.30;88.60;;;;;;5037171;28;20128;-60
2023/02/20 08:29:39;;;;;;;8.75;3.67;;;7.20;88.50;;;;;;5039737;28;20065;-61
2023/02/20 08:32:13;;;;;;;8.25;3.63;;;7.30;88.50;;;;;;5021113;28;20055;-61
2023/02/20 08:34:42;;;;;;;9.80;4.25;;;7.40;88.40;;;;;;5046564;28;20053;-61
2023/02/20 08:37:15;;;;;;;8.93;4.18;;;7.40;88.50;;;;;;5046110;28;20059;-60
2023/02/20 08:39:49;;;;;;;8.60;4.10;;;7.50;88.50;;;;;;5046786;28;20154;-60
2023/02/20 08:42:23;;;;;;;9.18;4.05;;;7.50;88.30;;;;;;5043380;28;20126;-60
2023/02/20 08:44:56;;;;;;;8.90;3.97;;;7.60;88.30;;;;;;5042160;28;20049;-61
2023/02/20 08:47:30;;;;;;;7.40;3.75;;;7.60;88.40;;;;;;5046076;28;20103;-60
2023/02/20 08:50:05;;;;;;;9.50;3.65;;;7.60;88.40;;;;;;5046045;28;20126;-60
2023/02/20 08:52:38;;;;;;;7.93;4.05;;;7.60;88.30;;;;;;5042240;28;20044;-60
2023/02/20 08:55:13;;;;;;;7.03;3.60;;;7.60;88.20;;;;;;5040297;28;20075;-59
2023/02/20 08:57:47;;;;;;;10.30;4.22;;;7.50;88.20;;;;;;5042350;28;20611;-59
2023/02/20 09:00:21;;;;;;;7.82;3.97;;;7.60;88.20;;;;;;5033185;28;20075;-62
2023/02/20 09:02:48;;;;;;;7.32;3.97;;;7.60;88.10;;;;;;5039057;28;20045;-61
2023/02/20 09:05:23;;;;;;;8.77;4.05;;;7.50;88.20;;;;;;5042644;28;20071;-62
2023/02/20 09:07:56;;;;;;;10.07;4.25;;;7.60;88.10;;;;;;5047664;28;20446;-62
2023/02/20 09:10:30;;;;;;;9.50;4.07;;;7.60;88.10;;;;;;5040110;28;20522;-62
2023/02/20 09:13:03;;;;;;;7.10;3.63;;;7.60;88.00;;;;;;5027942;28;20057;-61
2023/02/20 09:15:38;;;;;;;7.72;4.32;;;7.60;88.10;;;;;;5021733;28;20063;-61
2023/02/20 09:18:13;;;;;;;7.50;3.50;;;7.70;88.00;;;;;;5021955;28;20514;-63
2023/02/20 09:20:48;;;;;;;7.25;3.63;;;7.70;88.00;;;;;;5023565;28;20508;-61
2023/02/20 09:23:24;;;;;;;9.60;4.40;;;7.70;88.00;;;;;;5024820;28;20099;-62
2023/02/20 09:25:57;;;;;;;7.57;3.92;;;7.70;88.00;;;;;;5023597;28;20060;-62
2023/02/20 09:28:30;;;;;;;9.43;3.92;;;7.70;88.00;;;;;;5023151;28;20052;-61
2023/02/20 09:31:04;;;;;;;7.65;4.47;;;7.70;87.90;;;;;;5027597;28;20041;-62
2023/02/20 09:33:38;;;;;;;7.32;3.92;;;7.70;87.90;;;;;;5025866;28;20051;-62
2023/02/20 09:36:13;;;;;;;7.18;4.05;;;7.70;88.00;;;;;;5025455;28;20056;-61
2023/02/20 09:38:46;;;;;;;10.25;4.40;;;7.70;88.00;;;;;;5026762;28;20068;-62
2023/02/20 09:41:31;;;;;;;9.13;5.13;;;7.70;88.00;;;;;;5026651;28;20145;-63
2023/02/20 09:44:12;;;;;;;9.50;4.15;;;7.70;88.00;;;;;;5026982;28;20061;-61
2023/02/20 09:46:48;;;;;;;9.65;4.97;;;7.80;88.00;;;;;;5027721;28;20067;-63
2023/02/20 09:49:26;;;;;;;9.73;4.57;;;7.90;87.90;;;;;;5027770;28;20107;-62
2023/02/20 09:52:04;;;;;;;8.07;5.00;;;8.00;87.90;;;;;;5025168;28;20132;-62
2023/02/20 09:54:41;;;;;;;9.75;4.72;;;8.10;87.90;;;;;;5024042;28;20053;-62
2023/02/20 09:57:19;;;;;;;10.02;5.45;;;8.10;87.80;;;;;;5025350;28;20042;-61
2023/02/20 09:59:54;;;;;;;10.75;5.70;;;8.20;87.70;;;;;;5025014;28;20052;-62
2023/02/20 10:02:32;;;;;;;11.88;5.90;;;8.20;87.70;;;;;;5022004;28;20057;-61
2023/02/20 10:05:14;;;;;;;14.52;5.82;;;8.20;87.70;;;;;;5025134;28;20045;-62
2023/02/20 10:07:50;;;;;;;11.73;5.60;;;8.20;87.80;;;;;;5025550;28;20133;-62
2023/02/20 10:10:26;;;;;;;12.95;5.90;;;8.20;87.60;;;;;;5032380;28;20493;-62
2023/02/20 10:13:16;;;;;;;12.68;6.18;;;8.30;87.60;;;;;;5045492;28;20067;-62
2023/02/20 10:15:54;;;;;;;11.75;5.93;;;8.30;87.60;;;;;;5039046;28;20118;-62
2023/02/20 10:18:37;;;;;;;10.30;6.15;;;8.40;87.50;;;;;;5043267;28;20303;-60
2023/02/20 10:21:17;;;;;;;11.77;6.18;;;8.50;87.40;;;;;;5043323;28;20056;-61
2023/02/20 10:24:01;;;;;;;10.57;6.00;;;8.70;87.20;;;;;;5042502;28;20311;-62
2023/02/20 10:26:39;;;;;;;13.23;7.18;;;8.70;87.20;;;;;;5041539;28;20048;-62
2023/02/20 10:29:18;;;;;;;15.55;6.95;;;8.90;86.90;;;;;;5041760;28;20041;-61
2023/02/20 10:31:57;;;;;;;11.65;6.38;;;9.00;86.80;;;;;;5044301;28;20052;-62
2023/02/20 10:34:36;;;;;;;17.02;6.55;;;9.20;86.40;;;;;;5044104;28;20059;-62
2023/02/20 10:37:15;;;;;;;12.18;6.20;;;9.20;86.20;;;;;;5044517;28;20129;-61
2023/02/20 10:40:02;;;;;;;18.33;8.02;;;9.30;86.10;;;;;;5044561;28;20131;-61
2023/02/20 10:42:39;;;;;;;10.80;6.35;;;9.40;85.90;;;;;;5045409;28;20096;-63
2023/02/20 10:45:17;;;;;;;14.07;6.22;;;9.70;85.40;;;;;;5043234;28;20060;-62
2023/02/20 10:47:55;;;;;;;11.88;6.53;;;9.70;85.10;;;;;;5045677;28;20045;-62
2023/02/20 10:50:33;;;;;;;14.18;7.05;;;9.80;85.00;;;;;;5044206;28;20492;-61
2023/02/20 10:53:16;;;;;;;13.20;6.80;;;9.90;84.80;;;;;;5046154;28;20041;-62
2023/02/20 10:55:56;;;;;;;11.05;6.15;;;10.00;84.70;;;;;;5042555;28;20055;-62
2023/02/20 10:58:35;;;;;;;13.23;7.07;;;10.10;84.30;;;;;;5043054;28;20057;-62
2023/02/20 11:01:13;;;;;;;16.30;6.97;;;10.10;83.90;;;;;;5042414;28;20662;-62
2023/02/20 11:03:52;;;;;;;10.70;5.88;;;10.20;83.80;;;;;;5043136;28;20505;-62
2023/02/20 11:06:30;;;;;;;12.27;6.18;;;10.20;83.60;;;;;;5043729;28;20060;-61
2023/02/20 11:09:05;;;;;;;13.73;5.85;;;10.20;83.60;;;;;;5044471;28;20706;-62
2023/02/20 11:11:47;;;;;;;10.55;6.10;;;10.20;83.60;;;;;;5034888;28;20049;-61
2023/02/20 11:14:31;;;;;;;12.00;6.65;;;10.10;83.60;;;;;;5033139;28;20103;-63
2023/02/20 11:17:09;;;;;;;14.30;6.13;;;10.10;83.40;;;;;;5023293;28;20037;-61
2023/02/20 11:19:45;;;;;;;10.38;6.15;;;10.20;83.10;;;;;;5029356;28;20079;-61
2023/02/20 11:22:38;;;;;;;10.75;5.90;;;10.30;83.00;;;;;;5032305;28;20073;-61
2023/02/20 11:25:18;;;;;;;11.15;5.80;;;10.30;82.50;;;;;;5032171;28;20073;-61
2023/02/20 11:27:56;;;;;;;9.88;5.82;;;10.50;82.10;;;;;;5030927;28;20057;-62
2023/02/20 11:30:32;;;;;;;10.77;6.10;;;10.50;81.80;;;;;;5032967;28;20045;-65
2023/02/20 11:33:11;;;;;;;10.63;5.68;;;10.60;81.50;;;;;;5033407;28;20490;-61
2023/02/20 11:35:47;;;;;;;11.35;5.22;;;10.60;81.30;;;;;;5034498;28;20045;-62
2023/02/20 11:38:29;;;;;;;11.05;5.22;;;10.60;80.90;;;;;;5030997;28;20053;-61
2023/02/20 11:41:26;;;;;;;11.88;5.65;;;10.60;80.80;;;;;;5034633;28;20505;-62
2023/02/20 11:44:18;;;;;;;10.80;6.03;;;10.50;81.00;;;;;;5027066;28;20045;-61
2023/02/20 11:47:18;;;;;;;11.10;5.60;;;10.60;80.10;;;;;;5030618;28;20120;-61
2023/02/20 11:50:13;;;;;;;9.68;5.45;;;10.60;80.50;;;;;;5030295;28;20053;-61
2023/02/20 11:52:59;;;;;;;9.40;5.15;;;10.70;79.40;;;;;;5033437;28;20050;-61
2023/02/20 11:55:33;;;;;;;10.38;5.38;;;10.80;80.10;;;;;;5025150;28;20068;-61
2023/02/20 11:58:20;;;;;;;11.60;5.40;;;10.90;79.10;;;;;;5030880;28;20046;-61
2023/02/20 12:00:55;;;;;;;11.15;5.50;;;10.90;79.60;;;;;;5030961;28;20049;-62
2023/02/20 12:03:31;;;;;;;10.60;5.43;;;10.90;79.60;;;;;;5033525;28;20041;-60
2023/02/20 12:06:40;;;;;;;8.60;4.75;;;10.90;79.70;;;;;;5034689;28;20127;-62
2023/02/20 12:09:18;;;;;;;10.02;5.20;;;11.00;79.20;;;;;;5032085;28;20056;-62
2023/02/20 12:11:58;;;;;;;10.40;5.18;;;11.00;79.00;;;;;;5044066;28;20052;-61
2023/02/20 12:14:31;;;;;;;8.85;4.82;;;11.00;79.50;;;;;;5045942;28;20049;-63
2023/02/20 12:17:19;;;;;;;10.80;5.63;;;11.00;78.90;;;;;;5039893;28;20651;-61
2023/02/20 12:20:00;;;;;;;9.05;5.38;;;11.10;78.70;;;;;;5044812;28;20056;-62
2023/02/20 12:22:35;;;;;;;8.73;4.88;;;11.10;78.70;;;;;;5046057;28;20467;-61
2023/02/20 12:25:22;;;;;;;9.30;4.75;;;11.10;78.80;;;;;;5046423;28;20056;-61
2023/02/20 12:28:05;;;;;;;9.07;4.70;;;11.10;79.10;;;;;;5043878;28;20128;-61
2023/02/20 12:30:55;;;;;;;8.85;4.72;;;11.10;79.00;;;;;;5045501;28;20102;-62
2023/02/20 12:33:56;;;;;;;11.25;5.43;;;11.10;78.50;;;;;;5045478;28;20048;-64
2023/02/20 12:36:35;;;;;;;9.57;5.15;;;11.20;77.80;;;;;;5045638;28;20857;-61
2023/02/20 12:39:23;;;;;;;12.23;5.28;;;11.20;77.60;;;;;;5045777;28;20937;-62
2023/02/20 12:42:07;;;;;;;10.65;4.90;;;11.20;78.00;;;;;;5046482;28;20112;-63
2023/02/20 12:45:00;;;;;;;12.93;5.90;;;11.30;77.60;;;;;;5044984;28;20053;-63
2023/02/20 12:47:36;;;;;;;10.25;5.43;;;11.30;77.30;;;;;;5047138;28;20047;-62
2023/02/20 12:50:40;;;;;;;8.70;4.63;;;11.30;77.40;;;;;;5047263;28;20052;-61
2023/02/20 12:53:36;;;;;;;11.48;5.10;;;11.30;77.30;;;;;;5043419;28;20056;-62
2023/02/20 12:56:22;;;;;;;10.10;5.03;;;11.40;77.40;;;;;;5047050;28;20131;-65
2023/02/20 12:59:05;;;;;;;11.48;4.38;;;11.40;76.50;;;;;;5047845;28;20059;-62
2023/02/20 13:01:39;;;;;;;11.07;4.93;;;11.40;77.00;;;;;;5043148;28;20045;-62
2023/02/20 13:04:25;;;;;;;7.75;4.13;;;11.40;76.70;;;;;;5038388;28;20060;-63
2023/02/20 13:07:06;;;;;;;8.32;4.15;;;11.50;76.40;;;;;;5043559;28;20406;-63
2023/02/20 13:09:45;;;;;;;12.32;4.40;;;11.50;76.20;;;;;;5043960;28;20041;-61
2023/02/20 13:12:25;;;;;;;10.25;4.18;;;11.50;76.50;;;;;;5037077;28;20064;-63
2023/02/20 13:15:10;;;;;;;10.18;4.28;;;11.50;76.20;;;;;;5033262;28;20091;-62
2023/02/20 13:17:52;;;;;;;7.97;4.20;;;11.50;76.50;;;;;;5043398;28;20518;-62
2023/02/20 13:20:28;;;;;;;8.55;4.60;;;11.50;75.80;;;;;;5036948;28;20094;-61
2023/02/20 13:23:04;;;;;;;10.35;4.43;;;11.50;76.00;;;;;;5044848;28;20406;-62
2023/02/20 13:25:44;;;;;;;7.57;3.90;;;11.50;75.40;;;;;;5037276;28;20060;-62
2023/02/20 13:28:45;;;;;;;10.68;4.10;;;11.50;75.50;;;;;;5046136;28;20045;-61
2023/02/20 13:31:21;;;;;;;11.63;3.70;;;11.60;74.80;;;;;;5024549;28;20045;-62
2023/02/20 13:34:36;;;;;;;7.70;3.55;;;11.50;75.50;;;;;;5038636;28;20128;-63
2023/02/20 13:37:43;;;;;;;7.95;3.78;;;11.60;75.00;;;;;;5012050;28;20533;-61
2023/02/20 13:40:38;;;;;;;9.25;3.58;;;11.70;73.40;;;;;;5045067;28;20056;-61
2023/02/20 13:43:29;;;;;;;6.82;3.45;;;11.60;73.80;;;;;;5037389;28;20053;-62
2023/02/20 13:46:24;;;;;;;8.60;3.33;;;11.60;73.60;;;;;;5040442;28;20067;-62
2023/02/20 13:48:57;;;;;;;6.45;2.97;;;11.60;72.60;;;;;;5036644;28;20042;-62
2023/02/20 13:51:32;;;;;;;5.35;3.20;;;11.70;73.40;;;;;;5045931;28;20048;-62
2023/02/20 13:54:28;;;;;;;6.18;3.17;;;11.60;73.10;;;;;;5023525;28;20053;-61
2023/02/20 13:57:16;;;;;;;5.57;2.83;;;11.60;72.50;;;;;;5025949;28;20161;-61
2023/02/20 13:59:51;;;;;;;8.48;3.40;;;11.70;72.20;;;;;;5025330;28;20045;-63